East Smethport, Pennsylvania
Current Conditions -  °F | °C
As of 12:14 PM on Friday 21 Nov 2014 (Local Time) from KBFD Reporting Station
Few Clouds Few Clouds  
Wind Chill: 11°   Ceiling: Unl
Heat Index: 22°   Visibility: 10mi
Dew Point: 10°   Wind: 10mph
Humidity: 60%   Direction: 280°W
Pressure: 30.29"   Gusts: NA
Location:  41.81°N, 78.42°W
Report Text: KBFD 211714Z AUTO 28009KT 10SM FEW024 M06/M12 A3029 RMK AO2 T10561122
Loading
Personal Weather Stations






























Interactive Weather Map New forecast layout! Learn more

10-Day Weather Forecast

Advertisements
Track Severe Weather on mobile